createdAt,value
2022-08-23T00:03:05.825Z,7.70
2022-08-23T00:06:13.142Z,15.25
2022-08-23T00:09:18.358Z,13.95
2022-08-23T00:12:24.965Z,7.75
2022-08-23T00:15:30.151Z,8.27
2022-08-23T00:18:37.701Z,11.70
2022-08-23T00:21:43.724Z,9.65
2022-08-23T00:24:49.673Z,8.88
2022-08-23T00:27:54.763Z,13.50
2022-08-23T00:30:59.799Z,11.30
2022-08-23T00:34:07.356Z,8.82
2022-08-23T00:37:13.701Z,10.80
2022-08-23T00:40:20.691Z,10.95
2022-08-23T00:43:43.845Z,10.07
2022-08-23T00:47:05.495Z,7.18
2022-08-23T00:50:24.479Z,10.63
2022-08-23T00:53:34.004Z,9.63
2022-08-23T00:56:39.838Z,13.43
2022-08-23T00:59:44.923Z,10.73
2022-08-23T01:02:52.881Z,9.70
2022-08-23T01:06:07.702Z,15.85
2022-08-23T01:09:16.314Z,12.63
2022-08-23T01:12:32.354Z,14.45
2022-08-23T01:15:42.554Z,10.60
2022-08-23T01:18:48.895Z,10.10
2022-08-23T01:22:02.519Z,16.60
2022-08-23T01:25:14.030Z,14.50
2022-08-23T01:28:21.243Z,10.23
2022-08-23T01:31:27.421Z,10.20
2022-08-23T01:34:32.761Z,10.75
2022-08-23T01:37:42.340Z,13.73
2022-08-23T01:40:50.346Z,11.68
2022-08-23T01:43:55.328Z,11.27
2022-08-23T01:47:03.371Z,20.00
2022-08-23T01:50:09.795Z,11.60
2022-08-23T01:53:15.505Z,9.27
2022-08-23T01:56:38.869Z,11.48
2022-08-23T01:59:46.957Z,14.15
2022-08-23T02:02:52.485Z,15.30
2022-08-23T02:05:57.654Z,14.45
2022-08-23T02:09:05.939Z,15.63
2022-08-23T02:12:25.395Z,12.50
2022-08-23T02:18:42.029Z,15.80
2022-08-23T02:21:48.886Z,12.65
2022-08-23T02:24:54.566Z,15.30
2022-08-23T02:28:04.391Z,15.18
2022-08-23T02:31:09.913Z,16.35
2022-08-23T02:34:18.274Z,12.63
2022-08-23T02:37:23.250Z,11.93
2022-08-23T02:40:28.799Z,16.48
2022-08-23T02:43:40.926Z,14.70
2022-08-23T02:46:47.033Z,12.80
2022-08-23T02:49:53.714Z,15.25
2022-08-23T02:53:00.361Z,17.85
2022-08-23T02:56:06.781Z,13.57
2022-08-23T02:59:29.122Z,11.40
2022-08-23T03:02:34.181Z,13.93
2022-08-23T03:05:39.217Z,12.95
2022-08-23T03:08:45.296Z,14.18
2022-08-23T03:11:51.872Z,14.00
2022-08-23T03:15:01.309Z,15.80
2022-08-23T03:18:06.949Z,11.43
2022-08-23T03:21:13.090Z,13.27
2022-08-23T03:24:18.071Z,11.95
2022-08-23T03:27:23.647Z,13.43
2022-08-23T03:30:32.261Z,14.38
2022-08-23T03:33:38.325Z,14.75
2022-08-23T03:36:43.314Z,11.63
2022-08-23T03:39:48.766Z,9.77
2022-08-23T03:42:54.447Z,14.50
2022-08-23T03:46:04.967Z,12.75
2022-08-23T03:49:10.294Z,15.48
2022-08-23T03:52:25.485Z,12.65
2022-08-23T03:55:30.646Z,14.13
2022-08-23T03:58:38.081Z,16.48
2022-08-23T04:01:45.958Z,16.85
2022-08-23T04:04:51.054Z,14.07
2022-08-23T04:08:21.074Z,12.13
2022-08-23T04:11:39.115Z,11.68
2022-08-23T04:14:45.650Z,17.30
2022-08-23T04:17:54.920Z,19.35
2022-08-23T04:21:03.885Z,17.85
2022-08-23T04:24:09.458Z,12.02
2022-08-23T04:27:15.123Z,11.40
2022-08-23T04:30:21.817Z,13.55
2022-08-23T04:33:31.834Z,11.45
2022-08-23T04:36:40.438Z,10.68
2022-08-23T04:40:02.332Z,12.68
2022-08-23T04:43:15.977Z,14.68
2022-08-23T04:46:21.227Z,18.58
2022-08-23T04:49:30.187Z,14.45
2022-08-23T04:52:35.752Z,15.80
2022-08-23T04:55:41.915Z,13.13
2022-08-23T04:58:47.397Z,12.15
2022-08-23T05:01:53.472Z,11.90
2022-08-23T05:05:01.138Z,12.90
2022-08-23T05:08:06.935Z,15.45
2022-08-23T05:11:13.659Z,11.95
2022-08-23T05:14:19.664Z,12.77
2022-08-23T05:17:24.877Z,12.63
2022-08-23T05:20:32.583Z,16.33
2022-08-23T05:23:38.095Z,14.32
2022-08-23T05:26:51.082Z,16.73
2022-08-23T05:29:56.218Z,15.93
2022-08-23T05:33:01.303Z,14.73
2022-08-23T05:36:12.209Z,13.45
2022-08-23T05:39:17.282Z,14.57
2022-08-23T05:42:38.672Z,15.57
2022-08-23T05:45:43.679Z,11.15
2022-08-23T05:48:51.131Z,11.82
2022-08-23T05:52:00.993Z,14.35
2022-08-23T05:55:10.786Z,14.15
2022-08-23T05:58:18.343Z,12.65
2022-08-23T06:01:25.218Z,17.90
2022-08-23T06:04:33.939Z,14.35
2022-08-23T06:07:42.017Z,15.82
2022-08-23T06:10:47.021Z,16.13
2022-08-23T06:14:05.271Z,11.38
2022-08-23T06:17:10.681Z,11.05
2022-08-23T06:20:16.169Z,14.95
2022-08-23T06:23:42.488Z,14.48
2022-08-23T06:26:48.225Z,14.43
2022-08-23T06:29:53.241Z,15.02
2022-08-23T06:33:10.015Z,10.57
2022-08-23T06:36:23.903Z,11.93
2022-08-23T06:39:46.071Z,9.43
2022-08-23T06:43:04.805Z,17.08
2022-08-23T06:46:31.473Z,16.90
2022-08-23T06:49:37.014Z,9.70
2022-08-23T06:52:41.971Z,8.43
2022-08-23T06:56:03.603Z,11.15
2022-08-23T06:59:19.666Z,15.50
2022-08-23T07:02:50.115Z,13.95
2022-08-23T07:06:14.034Z,9.82
2022-08-23T07:09:19.637Z,12.80
2022-08-23T07:12:27.235Z,18.35
2022-08-23T07:15:32.182Z,9.27
2022-08-23T07:18:38.416Z,13.02
2022-08-23T07:21:44.789Z,12.13
2022-08-23T07:24:53.702Z,9.20
2022-08-23T07:28:03.123Z,11.80
2022-08-23T07:31:14.671Z,8.93
2022-08-23T07:34:21.005Z,15.18
2022-08-23T07:37:26.400Z,13.90
2022-08-23T07:40:34.406Z,12.38
2022-08-23T07:43:47.269Z,12.68
2022-08-23T07:46:52.777Z,7.40
2022-08-23T07:49:57.769Z,10.20
2022-08-23T07:53:04.092Z,19.40
2022-08-23T07:56:10.565Z,11.20
2022-08-23T07:59:37.102Z,13.73
2022-08-23T08:03:05.291Z,11.77
2022-08-23T08:06:28.492Z,9.63
2022-08-23T08:09:33.845Z,15.40
2022-08-23T08:12:39.176Z,8.57
2022-08-23T08:15:59.119Z,12.52
2022-08-23T08:19:10.082Z,9.85
2022-08-23T08:22:33.546Z,8.93
2022-08-23T08:26:10.565Z,9.50
2022-08-23T08:29:16.971Z,12.73
2022-08-23T08:32:25.863Z,12.20
2022-08-23T08:35:31.033Z,11.48
2022-08-23T08:38:36.778Z,12.60
2022-08-23T08:42:04.155Z,11.15
2022-08-23T08:45:14.560Z,18.15
2022-08-23T08:48:26.636Z,11.25
2022-08-23T08:51:45.005Z,10.73
2022-08-23T08:54:55.674Z,11.73
2022-08-23T08:58:01.632Z,13.70
2022-08-23T09:01:06.738Z,9.68
2022-08-23T09:04:14.658Z,15.48
2022-08-23T09:07:31.824Z,13.13
2022-08-23T09:10:59.153Z,12.27
2022-08-23T09:14:31.907Z,10.25
2022-08-23T09:17:44.013Z,8.98
2022-08-23T09:20:58.161Z,9.70
2022-08-23T09:24:03.206Z,8.82
2022-08-23T09:27:21.537Z,15.75
2022-08-23T09:30:48.619Z,10.75
2022-08-23T09:33:53.854Z,13.18
2022-08-23T09:37:22.305Z,13.80
2022-08-23T09:43:48.352Z,11.35
2022-08-23T09:47:08.962Z,13.43
2022-08-23T09:50:26.794Z,13.85
2022-08-23T09:53:34.699Z,10.18
2022-08-23T09:56:54.468Z,9.52
2022-08-23T10:00:05.967Z,8.70
2022-08-23T10:03:28.146Z,10.70
2022-08-23T10:06:48.519Z,9.32
2022-08-23T10:09:56.976Z,8.88
2022-08-23T10:13:02.789Z,9.05
2022-08-23T10:16:15.276Z,9.98
2022-08-23T10:19:41.277Z,5.82
2022-08-23T10:22:48.757Z,7.68
2022-08-23T10:26:06.430Z,8.02
2022-08-23T10:29:34.743Z,7.97
2022-08-23T10:32:54.178Z,9.98
2022-08-23T10:36:09.347Z,4.45
2022-08-23T10:39:18.899Z,9.25
2022-08-23T10:42:35.442Z,9.02
2022-08-23T10:45:44.558Z,6.43
2022-08-23T10:49:04.115Z,4.85
2022-08-23T10:52:18.029Z,10.95
2022-08-23T10:55:44.332Z,10.40
2022-08-23T10:58:56.754Z,5.72
2022-08-23T11:02:07.670Z,7.35
2022-08-23T11:05:24.778Z,15.55
2022-08-23T11:08:47.977Z,8.70
2022-08-23T11:12:14.241Z,7.53
2022-08-23T11:15:31.496Z,5.55
2022-08-23T11:18:43.937Z,8.20
2022-08-23T11:21:51.849Z,8.10
2022-08-23T11:25:01.727Z,3.03
2022-08-23T11:28:39.251Z,6.80
2022-08-23T11:31:51.618Z,4.38
2022-08-23T11:35:08.925Z,9.35
2022-08-23T11:38:17.224Z,7.90
2022-08-23T11:41:30.129Z,5.40
2022-08-23T11:44:43.225Z,9.05
2022-08-23T11:48:07.073Z,6.30
2022-08-23T11:51:24.264Z,8.10
2022-08-23T11:54:50.179Z,6.35
2022-08-23T11:58:07.568Z,9.50
2022-08-23T12:01:15.155Z,5.63
2022-08-23T12:04:38.919Z,8.77
2022-08-23T12:11:10.507Z,4.35
2022-08-23T12:14:38.454Z,8.13
2022-08-23T12:18:19.242Z,10.20
2022-08-23T12:21:34.144Z,5.80
2022-08-23T12:24:47.166Z,12.73
2022-08-23T12:27:57.464Z,12.38
2022-08-23T12:31:13.508Z,17.05
2022-08-23T12:34:28.526Z,7.93
2022-08-23T12:37:43.075Z,3.15
2022-08-23T12:40:54.549Z,8.38
2022-08-23T12:44:04.383Z,10.68
2022-08-23T12:47:18.683Z,10.60
2022-08-23T12:50:32.960Z,4.90
2022-08-23T12:53:45.371Z,7.93
2022-08-23T12:56:52.536Z,6.20
2022-08-23T13:00:17.157Z,4.72
2022-08-23T13:03:25.959Z,6.38
2022-08-23T13:06:34.083Z,6.82
2022-08-23T13:09:45.462Z,6.78
2022-08-23T13:12:58.611Z,4.65
2022-08-23T13:16:07.245Z,4.07
2022-08-23T13:19:22.388Z,4.95
2022-08-23T13:22:32.279Z,6.43
2022-08-23T13:25:41.536Z,4.13
2022-08-23T13:29:07.329Z,8.90
2022-08-23T13:32:28.351Z,10.52
2022-08-23T13:35:37.562Z,6.35
2022-08-23T13:38:42.894Z,6.95
2022-08-23T13:41:50.586Z,5.07
2022-08-23T13:44:56.776Z,5.90
2022-08-23T13:48:10.168Z,6.20
2022-08-23T13:51:29.887Z,8.40
2022-08-23T13:54:36.221Z,7.05
2022-08-23T13:57:45.449Z,5.55
2022-08-23T14:00:55.735Z,5.07
2022-08-23T14:04:01.113Z,7.78
2022-08-23T14:07:06.349Z,5.10
2022-08-23T14:10:12.025Z,5.45
2022-08-23T14:13:22.986Z,6.00
2022-08-23T14:16:33.795Z,6.47
2022-08-23T14:20:31.846Z,6.75
2022-08-23T14:23:08.632Z,8.85
2022-08-23T14:26:19.499Z,7.33
2022-08-23T14:29:30.111Z,5.65
2022-08-23T14:32:35.356Z,7.65
2022-08-23T14:35:40.481Z,4.60
2022-08-23T14:38:46.301Z,7.32
2022-08-23T14:41:55.402Z,9.55
2022-08-23T14:45:03.055Z,7.45
2022-08-23T14:48:08.753Z,6.25
2022-08-23T14:51:26.022Z,5.50
2022-08-23T14:54:31.042Z,6.47
2022-08-23T14:57:36.035Z,6.75
2022-08-23T15:00:43.825Z,6.57
2022-08-23T15:03:49.143Z,5.90
2022-08-23T15:07:16.674Z,6.65
2022-08-23T15:13:55.549Z,3.55
2022-08-23T15:17:04.053Z,9.07
2022-08-23T15:20:10.123Z,8.07
2022-08-23T15:23:15.385Z,7.47
2022-08-23T15:26:26.225Z,6.78
2022-08-23T15:29:31.207Z,10.63
2022-08-23T15:32:38.852Z,11.05
2022-08-23T15:35:52.145Z,4.50
2022-08-23T15:38:57.629Z,4.50
2022-08-23T15:42:02.581Z,8.07
2022-08-23T15:45:09.329Z,8.27
2022-08-23T15:48:21.459Z,5.38
2022-08-23T15:51:27.420Z,5.15
2022-08-23T15:54:32.361Z,5.25
2022-08-23T15:57:43.840Z,10.43
2022-08-23T16:00:49.583Z,6.88
2022-08-23T16:03:57.161Z,5.75
2022-08-23T16:07:02.606Z,7.32
2022-08-23T16:10:09.246Z,27.98
2022-08-23T16:13:14.222Z,10.98
2022-08-23T16:16:22.170Z,11.63
2022-08-23T16:19:31.115Z,5.75
2022-08-23T16:22:36.153Z,5.85
2022-08-23T16:25:41.250Z,10.80
2022-08-23T16:28:47.476Z,8.30
2022-08-23T16:31:52.387Z,8.65
2022-08-23T16:35:00.125Z,10.25
2022-08-23T16:38:05.078Z,7.10
2022-08-23T16:41:10.320Z,6.60
2022-08-23T16:44:15.469Z,7.72
2022-08-23T16:47:23.242Z,6.47
2022-08-23T16:50:32.930Z,7.43
2022-08-23T16:53:38.225Z,5.35
2022-08-23T16:56:44.678Z,6.68
2022-08-23T16:59:52.915Z,11.48
2022-08-23T17:03:04.425Z,4.85
2022-08-23T17:06:13.116Z,6.53
2022-08-23T17:09:18.094Z,9.15
2022-08-23T17:12:24.249Z,6.28
2022-08-23T17:15:31.899Z,8.15
2022-08-23T17:18:36.943Z,12.63
2022-08-23T17:21:45.529Z,3.70
2022-08-23T17:24:53.316Z,2.88
2022-08-23T17:28:01.347Z,5.32
2022-08-23T17:31:06.799Z,6.35
2022-08-23T17:34:12.050Z,6.07
2022-08-23T17:37:23.926Z,4.07
2022-08-23T17:40:33.228Z,2.72
2022-08-23T17:43:42.746Z,5.45
2022-08-23T17:46:49.125Z,6.72
2022-08-23T17:49:55.267Z,5.43
2022-08-23T17:53:03.047Z,4.45
2022-08-23T17:56:12.449Z,2.75
2022-08-23T17:59:18.489Z,5.95
2022-08-23T18:02:23.617Z,3.22
2022-08-23T18:05:30.621Z,3.55
2022-08-23T18:08:38.546Z,5.72
2022-08-23T18:11:43.604Z,3.13
2022-08-23T18:14:49.179Z,3.60
2022-08-23T18:17:58.110Z,4.85
2022-08-23T18:21:07.675Z,8.45
2022-08-23T18:24:16.117Z,9.35
2022-08-23T18:27:33.775Z,6.63
2022-08-23T18:30:47.653Z,4.30
2022-08-23T18:37:01.069Z,7.82
2022-08-23T18:40:10.425Z,7.15
2022-08-23T18:43:17.475Z,3.67
2022-08-23T18:46:23.282Z,7.45
2022-08-23T18:49:28.225Z,7.25
2022-08-23T18:52:33.159Z,9.00
2022-08-23T18:55:41.029Z,5.97
2022-08-23T18:58:46.089Z,8.43
2022-08-23T19:01:51.351Z,6.93
2022-08-23T19:04:56.479Z,5.65
2022-08-23T19:08:01.506Z,4.70
2022-08-23T19:11:09.582Z,8.02
2022-08-23T19:14:15.326Z,5.13
2022-08-23T19:17:20.333Z,5.57
2022-08-23T19:20:25.326Z,8.25
2022-08-23T19:23:30.273Z,12.73
2022-08-23T19:26:38.458Z,12.77
2022-08-23T19:29:45.836Z,20.67
2022-08-23T19:32:50.838Z,11.30
2022-08-23T19:35:57.931Z,5.90
2022-08-23T19:39:03.125Z,7.72
2022-08-23T19:42:11.925Z,10.05
2022-08-23T19:45:18.686Z,7.05
2022-08-23T19:48:24.626Z,11.43
2022-08-23T19:51:30.325Z,4.85
2022-08-23T19:54:35.989Z,5.47
2022-08-23T19:57:43.618Z,7.22
2022-08-23T20:00:48.721Z,13.50
2022-08-23T20:03:53.809Z,18.08
2022-08-23T20:07:00.306Z,17.58
2022-08-23T20:10:05.557Z,15.48
2022-08-23T20:13:13.109Z,18.85
2022-08-23T20:16:18.436Z,15.70
2022-08-23T20:19:24.113Z,15.43
2022-08-23T20:22:41.774Z,16.92
2022-08-23T20:25:50.376Z,15.75
2022-08-23T20:29:00.140Z,13.30
2022-08-23T20:32:06.815Z,17.30
2022-08-23T20:35:13.976Z,21.63
2022-08-23T20:38:33.041Z,15.65
2022-08-23T20:41:40.932Z,11.57
2022-08-23T20:44:48.534Z,9.57
2022-08-23T20:47:53.662Z,12.27
2022-08-23T20:51:00.870Z,8.35
2022-08-23T20:54:06.017Z,9.25
2022-08-23T20:57:11.118Z,8.55
2022-08-23T21:00:19.728Z,12.50
2022-08-23T21:03:24.776Z,15.38
2022-08-23T21:06:31.707Z,16.63
2022-08-23T21:09:36.679Z,15.45
2022-08-23T21:12:41.686Z,7.95
2022-08-23T21:15:49.499Z,11.82
2022-08-23T21:18:56.816Z,9.60
2022-08-23T21:22:01.884Z,8.20
2022-08-23T21:25:07.897Z,12.02
2022-08-23T21:28:13.374Z,14.75
2022-08-23T21:31:23.643Z,10.02
2022-08-23T21:34:29.005Z,6.95
2022-08-23T21:37:35.410Z,11.70
2022-08-23T21:40:40.643Z,12.25
2022-08-23T21:43:45.735Z,12.35
2022-08-23T21:46:53.326Z,14.63
2022-08-23T21:49:58.784Z,8.95
2022-08-23T21:53:04.284Z,11.63
2022-08-23T21:56:09.647Z,14.13
2022-08-23T21:59:17.203Z,14.38
2022-08-23T22:02:24.803Z,16.33
2022-08-23T22:05:30.341Z,10.52
2022-08-23T22:08:35.350Z,16.10
2022-08-23T22:11:42.490Z,13.57
2022-08-23T22:14:47.478Z,12.48
2022-08-23T22:17:55.198Z,17.05
2022-08-23T22:21:01.499Z,17.73
2022-08-23T22:24:07.272Z,20.60
2022-08-23T22:27:13.344Z,11.70
2022-08-23T22:30:19.909Z,12.68
2022-08-23T22:33:27.660Z,18.13
2022-08-23T22:36:33.488Z,11.73
2022-08-23T22:39:38.487Z,15.20
2022-08-23T22:42:43.462Z,10.60
2022-08-23T22:45:52.638Z,14.68
2022-08-23T22:49:00.326Z,14.45
2022-08-23T22:52:06.219Z,12.85
2022-08-23T22:55:11.577Z,16.58
2022-08-23T22:58:16.519Z,19.90
2022-08-23T23:01:23.885Z,15.68
2022-08-23T23:04:32.403Z,13.77
2022-08-23T23:07:49.892Z,16.27
2022-08-23T23:10:54.819Z,16.52
2022-08-23T23:14:00.913Z,16.48
2022-08-23T23:17:06.015Z,16.40
2022-08-23T23:20:27.222Z,19.42
2022-08-23T23:23:33.569Z,19.23
2022-08-23T23:26:38.622Z,23.73
2022-08-23T23:29:44.289Z,14.23
2022-08-23T23:32:49.266Z,18.35
2022-08-23T23:35:57.239Z,17.83
2022-08-23T23:39:03.052Z,15.45
2022-08-23T23:42:08.303Z,19.75
2022-08-23T23:45:14.330Z,21.02
2022-08-23T23:48:19.281Z,20.13
2022-08-23T23:51:28.841Z,19.23
2022-08-23T23:54:35.589Z,21.45
2022-08-23T23:57:41.310Z,18.55
